Huvudsida
METAR-TAF:

METAR-TAF

Flygplatser :

Gibraltar International Airport

Gibraltar, Gibraltar

latitud: 36-09N, longitud: 005-21W, höjd: 5 m

Aktuellt väderrapport

Denna rapport gjordes för 33 minuter sedan, klockan 00:50 UTC
Vind 6 kt från nordost
Temperatur 17°C
Fuktighet 88%
Tryck 1015 hPa
Sikt: 8000 m

METAR: LXGB 230050Z AUTO 05006KT 8000 // NCD 17/15 Q1015

Tid: 03:23 (01:23 UTC)

Väderprognos

Denna rapport gjordes för 9 timmar och 2 minuter sedan, klockan 16:21 UTC
Prognos gäller från 22 kl. 18 UTC till 22 kl. 22 UTC
Vind 5 kt varierande vindriktning
Sikt 10 km eller mer
Få moln på en höjd av 3500 ft

TAF: LXGB 221621Z 2218/2222 VRB05KT 9999 FEW035

Aktuella väderrapporter och prognoser från 4000 flygplatser (METAR- och TAF-rapporter).

De tillgängliga stationerna syns som gula och röda prickar på kartan.

För musen över prickarna för att se namnen på stationerna.

Klicka sedan för att få väderrapporter och prognoser.

För att ändra kartan: Klicka på de gröna knapparna med ett svart kors på för att zooma in; den gröna knappen med ett streck på för att zooma ut; eller på de gröna pilarna för angränsande kartor.


METAR-TAF: